createdAt,value
2022-09-07T00:00:19.171Z,57.00
2022-09-07T00:02:20.963Z,57.10
2022-09-07T00:04:22.654Z,57.10
2022-09-07T00:06:24.783Z,57.60
2022-09-07T00:08:27.371Z,57.00
2022-09-07T00:10:29.141Z,57.30
2022-09-07T00:12:30.817Z,57.10
2022-09-07T00:14:32.485Z,57.10
2022-09-07T00:16:34.500Z,57.10
2022-09-07T00:18:36.547Z,57.10
2022-09-07T00:20:38.211Z,57.10
2022-09-07T00:22:39.940Z,57.10
2022-09-07T00:24:41.601Z,57.30
2022-09-07T00:26:43.289Z,57.30
2022-09-07T00:28:45.515Z,57.10
2022-09-07T00:30:47.199Z,57.20
2022-09-07T00:32:48.917Z,57.30
2022-09-07T00:34:51.117Z,57.30
2022-09-07T00:36:52.794Z,57.40
2022-09-07T00:38:54.759Z,57.30
2022-09-07T00:40:56.470Z,57.40
2022-09-07T00:42:58.158Z,57.30
2022-09-07T00:45:02.120Z,57.40
2022-09-07T00:47:04.714Z,57.50
2022-09-07T00:49:12.954Z,57.30
2022-09-07T00:51:17.251Z,57.40
2022-09-07T00:53:22.675Z,57.60
2022-09-07T00:55:24.591Z,57.40
2022-09-07T00:57:28.134Z,57.30
2022-09-07T00:59:31.937Z,57.30
2022-09-07T01:01:34.170Z,57.50
2022-09-07T01:03:39.036Z,57.30
2022-09-07T01:05:45.275Z,57.30
2022-09-07T01:07:47.069Z,57.50
2022-09-07T01:09:50.765Z,57.60
2022-09-07T01:11:53.540Z,57.60
2022-09-07T01:13:55.380Z,57.50
2022-09-07T01:16:07.824Z,57.50
2022-09-07T01:18:12.361Z,57.40
2022-09-07T01:20:32.835Z,57.30
2022-09-07T01:22:53.049Z,57.50
2022-09-07T01:24:58.201Z,57.50
2022-09-07T01:26:59.901Z,57.40
2022-09-07T01:29:04.353Z,57.60
2022-09-07T01:31:26.343Z,57.50
2022-09-07T01:33:31.146Z,57.60
2022-09-07T01:35:48.243Z,57.50
2022-09-07T01:37:57.260Z,57.40
2022-09-07T01:40:08.377Z,57.60
2022-09-07T01:42:11.928Z,57.60
2022-09-07T01:44:28.746Z,57.60
2022-09-07T01:46:33.689Z,57.70
2022-09-07T01:48:36.333Z,57.60
2022-09-07T01:50:42.051Z,57.60
2022-09-07T01:53:06.312Z,57.60
2022-09-07T01:55:17.612Z,57.80
2022-09-07T01:57:23.380Z,58.00
2022-09-07T01:59:34.417Z,57.80
2022-09-07T02:01:39.138Z,57.80
2022-09-07T02:03:42.946Z,57.70
2022-09-07T02:06:04.881Z,57.60
2022-09-07T02:08:09.601Z,57.30
2022-09-07T02:10:17.419Z,57.60
2022-09-07T02:12:24.374Z,57.90
2022-09-07T02:14:31.149Z,58.10
2022-09-07T02:16:34.026Z,58.20
2022-09-07T02:18:38.460Z,58.40
2022-09-07T02:20:42.619Z,58.50
2022-09-07T02:22:47.645Z,58.60
2022-09-07T02:24:51.018Z,58.90
2022-09-07T02:26:54.107Z,59.00
2022-09-07T02:28:56.125Z,58.80
2022-09-07T02:30:57.937Z,59.10
2022-09-07T02:32:59.974Z,59.30
2022-09-07T02:35:02.421Z,59.40
2022-09-07T02:37:06.116Z,59.70
2022-09-07T02:39:07.786Z,59.60
2022-09-07T02:41:27.892Z,59.50
2022-09-07T02:43:30.556Z,59.60
2022-09-07T02:45:47.360Z,59.40
2022-09-07T02:47:49.440Z,59.70
2022-09-07T02:49:51.354Z,59.60
2022-09-07T02:52:16.146Z,59.70
2022-09-07T02:54:17.804Z,59.80
2022-09-07T02:56:19.446Z,59.70
2022-09-07T02:58:38.936Z,59.60
2022-09-07T03:00:48.549Z,59.90
2022-09-07T03:02:56.314Z,59.80
2022-09-07T03:05:16.107Z,59.40
2022-09-07T03:07:20.053Z,59.40
2022-09-07T03:09:25.733Z,59.40
2022-09-07T03:11:28.201Z,59.70
2022-09-07T03:13:29.976Z,59.90
2022-09-07T03:15:31.804Z,60.10
2022-09-07T03:17:33.528Z,59.90
2022-09-07T03:19:35.386Z,60.40
2022-09-07T03:21:37.076Z,60.20
2022-09-07T03:23:38.803Z,60.60
2022-09-07T03:25:40.539Z,60.40
2022-09-07T03:27:42.436Z,60.60
2022-09-07T03:29:44.257Z,60.50
2022-09-07T03:31:46.178Z,60.60
2022-09-07T03:33:48.671Z,60.70
2022-09-07T03:35:57.939Z,60.80
2022-09-07T03:37:59.634Z,61.00
2022-09-07T03:40:01.648Z,60.80
2022-09-07T03:42:03.505Z,60.90
2022-09-07T03:44:05.573Z,61.10
2022-09-07T03:46:07.915Z,60.90
2022-09-07T03:48:09.616Z,61.00
2022-09-07T03:50:11.309Z,61.10
2022-09-07T03:52:13.010Z,61.20
2022-09-07T03:54:14.666Z,61.20
2022-09-07T03:56:19.413Z,61.20
2022-09-07T03:58:21.089Z,61.30
2022-09-07T04:00:22.790Z,61.20
2022-09-07T04:02:24.523Z,60.80
2022-09-07T04:04:26.252Z,60.80
2022-09-07T04:06:28.118Z,60.90
2022-09-07T04:08:30.599Z,60.80
2022-09-07T04:10:36.781Z,60.90
2022-09-07T04:12:38.503Z,61.00
2022-09-07T04:14:40.178Z,61.00
2022-09-07T04:16:42.013Z,61.20
2022-09-07T04:18:46.905Z,61.00
2022-09-07T04:20:50.694Z,61.10
2022-09-07T04:22:54.333Z,60.90
2022-09-07T04:24:56.177Z,60.60
2022-09-07T04:26:57.887Z,60.60
2022-09-07T04:29:01.111Z,61.80
2022-09-07T04:31:02.970Z,61.00
2022-09-07T04:33:04.717Z,61.30
2022-09-07T04:35:06.759Z,60.80
2022-09-07T04:37:08.439Z,60.80
2022-09-07T04:39:10.894Z,61.00
2022-09-07T04:41:14.552Z,61.10
2022-09-07T04:43:16.222Z,60.80
2022-09-07T04:45:18.151Z,60.60
2022-09-07T04:47:19.962Z,61.00
2022-09-07T04:49:21.680Z,61.30
2022-09-07T04:51:24.328Z,61.30
2022-09-07T04:53:25.995Z,61.00
2022-09-07T04:55:27.678Z,60.70
2022-09-07T04:57:29.395Z,61.40
2022-09-07T04:59:31.044Z,61.20
2022-09-07T05:01:33.020Z,61.10
2022-09-07T05:03:36.367Z,60.90
2022-09-07T05:05:38.584Z,61.20
2022-09-07T05:07:40.329Z,61.40
2022-09-07T05:09:42.553Z,61.30
2022-09-07T05:11:44.239Z,61.10
2022-09-07T05:13:45.997Z,61.00
2022-09-07T05:15:47.689Z,60.80
2022-09-07T05:17:50.971Z,61.00
2022-09-07T05:19:52.630Z,61.00
2022-09-07T05:21:56.782Z,61.40
2022-09-07T05:23:59.569Z,61.60
2022-09-07T05:26:01.441Z,61.70
2022-09-07T05:28:04.115Z,61.30
2022-09-07T05:30:06.626Z,61.00
2022-09-07T05:32:08.993Z,61.40
2022-09-07T05:36:33.164Z,61.40
2022-09-07T05:38:35.512Z,61.40
2022-09-07T05:40:40.697Z,61.20
2022-09-07T05:42:42.656Z,61.10
2022-09-07T05:44:45.176Z,61.00
2022-09-07T05:46:47.284Z,61.20
2022-09-07T05:48:49.292Z,61.50
2022-09-07T05:50:54.043Z,61.40
2022-09-07T05:52:55.725Z,61.60
2022-09-07T05:55:13.052Z,61.40
2022-09-07T05:57:19.074Z,61.40
2022-09-07T05:59:20.761Z,61.20
2022-09-07T06:01:22.401Z,61.60
2022-09-07T06:03:24.923Z,61.70
2022-09-07T06:05:26.656Z,61.90
2022-09-07T06:07:28.324Z,61.90
2022-09-07T06:09:30.795Z,62.00
2022-09-07T06:11:32.564Z,61.80
2022-09-07T06:13:34.348Z,61.90
2022-09-07T06:15:36.062Z,62.10
2022-09-07T06:17:37.731Z,61.80
2022-09-07T06:19:39.401Z,62.10
2022-09-07T06:21:41.137Z,62.00
2022-09-07T06:23:43.474Z,61.80
2022-09-07T06:25:48.667Z,62.10
2022-09-07T06:27:50.533Z,61.70
2022-09-07T06:29:52.223Z,62.10
2022-09-07T06:34:15.589Z,62.10
2022-09-07T06:36:21.225Z,62.10
2022-09-07T06:38:22.994Z,61.90
2022-09-07T06:40:24.752Z,61.90
2022-09-07T06:42:26.417Z,62.10
2022-09-07T06:44:28.271Z,62.30
2022-09-07T06:48:54.986Z,62.50
2022-09-07T06:50:57.578Z,62.10
2022-09-07T06:55:20.963Z,62.30
2022-09-07T06:57:22.660Z,62.20
2022-09-07T06:59:24.332Z,62.00
2022-09-07T07:01:26.399Z,62.40
2022-09-07T07:03:28.384Z,62.40
2022-09-07T07:05:31.711Z,62.50
2022-09-07T07:07:34.138Z,62.60
2022-09-07T07:09:35.814Z,62.20
2022-09-07T07:11:37.593Z,62.20
2022-09-07T07:13:39.838Z,62.40
2022-09-07T07:15:41.896Z,62.20
2022-09-07T07:17:43.864Z,62.30
2022-09-07T07:19:45.556Z,62.40
2022-09-07T07:24:09.000Z,62.30
2022-09-07T07:26:12.723Z,62.20
2022-09-07T07:30:36.399Z,62.00
2022-09-07T07:32:38.320Z,62.20
2022-09-07T07:34:39.957Z,62.20
2022-09-07T07:36:41.681Z,62.40
2022-09-07T07:39:00.563Z,62.40
2022-09-07T07:43:24.754Z,61.80
2022-09-07T07:47:51.457Z,61.80
2022-09-07T07:50:30.649Z,61.60
2022-09-07T07:54:38.300Z,61.70
2022-09-07T07:56:39.940Z,61.70
2022-09-07T07:58:44.277Z,61.20
2022-09-07T08:00:55.184Z,61.10
2022-09-07T08:02:57.691Z,61.50
2022-09-07T08:04:59.326Z,61.50
2022-09-07T08:07:05.581Z,61.60
2022-09-07T08:09:11.970Z,61.70
2022-09-07T08:11:16.762Z,61.10
2022-09-07T08:13:19.130Z,61.50
2022-09-07T08:15:20.933Z,61.30
2022-09-07T08:17:22.591Z,61.30
2022-09-07T08:19:24.223Z,61.40
2022-09-07T08:21:25.835Z,61.20
2022-09-07T08:23:27.627Z,62.40
2022-09-07T08:25:29.267Z,61.30
2022-09-07T08:27:30.892Z,61.30
2022-09-07T08:29:35.156Z,61.30
2022-09-07T08:31:37.540Z,61.30
2022-09-07T08:33:39.300Z,61.40
2022-09-07T08:35:41.004Z,61.40
2022-09-07T08:37:42.614Z,61.40
2022-09-07T08:39:44.252Z,61.40
2022-09-07T08:41:46.426Z,61.40
2022-09-07T08:44:00.345Z,61.30
2022-09-07T08:46:08.836Z,60.90
2022-09-07T08:48:14.720Z,61.00
2022-09-07T08:50:22.616Z,61.30
2022-09-07T08:52:29.050Z,61.40
2022-09-07T08:54:30.756Z,61.20
2022-09-07T08:56:37.656Z,60.90
2022-09-07T08:58:49.226Z,61.00
2022-09-07T09:01:30.566Z,61.10
2022-09-07T09:04:15.327Z,61.10
2022-09-07T09:05:41.723Z,61.10
2022-09-07T09:07:43.451Z,61.40
2022-09-07T09:09:53.714Z,61.40
2022-09-07T09:12:03.224Z,61.30
2022-09-07T09:14:17.129Z,60.80
2022-09-07T09:16:37.747Z,61.10
2022-09-07T09:18:58.286Z,61.90
2022-09-07T09:21:00.405Z,60.90
2022-09-07T09:23:05.591Z,61.00
2022-09-07T09:25:07.463Z,61.00
2022-09-07T09:27:09.337Z,60.70
2022-09-07T09:29:29.063Z,60.80
2022-09-07T09:31:35.042Z,60.70
2022-09-07T09:33:36.766Z,60.70
2022-09-07T09:35:39.338Z,60.70
2022-09-07T09:37:41.783Z,60.70
2022-09-07T09:39:44.391Z,60.50
2022-09-07T09:41:46.389Z,60.70
2022-09-07T09:43:51.095Z,60.60
2022-09-07T09:48:21.065Z,60.10
2022-09-07T09:53:15.982Z,60.40
2022-09-07T09:55:41.148Z,60.30
2022-09-07T09:59:04.915Z,60.00
2022-09-07T10:00:21.370Z,60.00
2022-09-07T10:04:51.144Z,59.80
2022-09-07T10:06:57.812Z,59.70
2022-09-07T10:09:01.732Z,59.70
2022-09-07T10:11:07.523Z,59.60
2022-09-07T10:13:18.483Z,59.70
2022-09-07T10:15:32.869Z,59.80
2022-09-07T10:17:37.773Z,59.80
2022-09-07T10:19:40.598Z,59.70
2022-09-07T10:21:56.919Z,59.70
2022-09-07T10:23:58.564Z,59.70
2022-09-07T10:26:19.466Z,59.70
2022-09-07T10:28:22.552Z,59.70
2022-09-07T10:30:24.240Z,59.80
2022-09-07T10:32:46.191Z,59.70
2022-09-07T10:35:06.812Z,59.80
2022-09-07T10:37:09.830Z,59.60
2022-09-07T10:39:15.163Z,59.50
2022-09-07T10:41:18.508Z,59.50
2022-09-07T10:43:23.450Z,59.40
2022-09-07T10:45:47.048Z,59.20
2022-09-07T10:47:48.663Z,59.10
2022-09-07T10:52:19.861Z,58.70
2022-09-07T10:54:30.510Z,59.00
2022-09-07T10:56:35.425Z,58.70
2022-09-07T10:59:05.018Z,58.80
2022-09-07T11:01:15.766Z,58.80
2022-09-07T11:03:32.814Z,58.60
2022-09-07T11:05:53.165Z,58.70
2022-09-07T11:08:07.552Z,58.70
2022-09-07T11:10:38.779Z,58.70
2022-09-07T11:12:41.088Z,58.60
2022-09-07T11:14:51.629Z,58.60
2022-09-07T11:17:05.238Z,58.60
2022-09-07T11:24:11.845Z,58.30
2022-09-07T11:26:16.206Z,58.30
2022-09-07T11:28:20.983Z,58.30
2022-09-07T11:30:24.773Z,58.20
2022-09-07T11:32:28.967Z,58.20
2022-09-07T11:34:36.385Z,57.60
2022-09-07T11:36:41.311Z,57.40
2022-09-07T11:38:49.342Z,57.10
2022-09-07T11:41:06.326Z,57.20
2022-09-07T11:43:26.885Z,57.20
2022-09-07T11:45:33.469Z,56.80
2022-09-07T11:47:47.157Z,56.60
2022-09-07T11:49:56.049Z,56.60
2022-09-07T11:52:14.780Z,56.60
2022-09-07T11:54:35.164Z,56.40
2022-09-07T11:56:38.574Z,56.30
2022-09-07T11:58:52.385Z,56.40
2022-09-07T12:01:00.762Z,56.40
2022-09-07T12:03:05.396Z,56.50
2022-09-07T12:05:07.063Z,56.50
2022-09-07T12:07:11.712Z,56.00
2022-09-07T12:09:16.320Z,56.10
2022-09-07T12:11:36.651Z,55.80
2022-09-07T12:13:41.305Z,55.80
2022-09-07T12:16:01.721Z,54.30
2022-09-07T12:18:03.344Z,54.80
2022-09-07T12:20:18.370Z,55.20
2022-09-07T12:22:23.108Z,55.20
2022-09-07T12:24:43.363Z,55.00
2022-09-07T12:26:49.622Z,55.00
2022-09-07T12:28:51.226Z,55.20
2022-09-07T12:30:52.932Z,55.10
2022-09-07T12:32:58.702Z,54.70
2022-09-07T12:35:00.776Z,54.70
2022-09-07T12:37:03.333Z,55.10
2022-09-07T12:39:06.119Z,54.60
2022-09-07T12:41:28.015Z,53.90
2022-09-07T12:43:45.976Z,54.10
2022-09-07T12:45:48.993Z,54.30
2022-09-07T12:47:58.451Z,54.20
2022-09-07T12:50:19.805Z,53.90
2022-09-07T12:52:39.954Z,53.50
2022-09-07T12:55:04.383Z,54.20
2022-09-07T12:57:30.879Z,53.50
2022-09-07T12:59:44.636Z,53.00
2022-09-07T13:01:58.546Z,53.10
2022-09-07T13:04:12.657Z,53.20
2022-09-07T13:06:14.323Z,53.00
2022-09-07T13:08:22.090Z,52.40
2022-09-07T13:10:26.761Z,52.40
2022-09-07T13:14:55.600Z,51.80
2022-09-07T13:17:16.511Z,52.00
2022-09-07T13:19:36.806Z,52.00
2022-09-07T13:21:39.902Z,51.50
2022-09-07T13:23:53.137Z,51.60
2022-09-07T13:25:55.950Z,51.30
2022-09-07T13:28:06.099Z,51.30
2022-09-07T13:30:07.778Z,51.10
2022-09-07T13:32:13.059Z,51.20
2022-09-07T13:34:33.561Z,51.20
2022-09-07T13:36:40.459Z,51.20
2022-09-07T13:38:42.582Z,50.90
2022-09-07T13:40:45.998Z,51.50
2022-09-07T13:42:48.306Z,51.30
2022-09-07T13:44:54.529Z,51.20
2022-09-07T13:47:02.287Z,51.30
2022-09-07T13:49:27.459Z,51.80
2022-09-07T13:51:37.679Z,52.10
2022-09-07T13:53:46.660Z,52.20
2022-09-07T13:56:06.308Z,51.80
2022-09-07T13:58:17.500Z,51.90
2022-09-07T14:00:20.104Z,52.50
2022-09-07T14:02:24.160Z,51.80
2022-09-07T14:04:27.083Z,51.50
2022-09-07T14:06:33.068Z,51.50
2022-09-07T14:08:39.219Z,51.50
2022-09-07T14:10:47.219Z,51.30
2022-09-07T14:12:50.864Z,51.10
2022-09-07T14:15:27.777Z,50.50
2022-09-07T14:17:29.496Z,50.20
2022-09-07T14:19:31.118Z,50.50
2022-09-07T14:21:32.750Z,50.20
2022-09-07T14:23:36.577Z,50.40
2022-09-07T14:28:02.024Z,50.60
2022-09-07T14:30:18.970Z,50.00
2022-09-07T14:32:22.620Z,49.90
2022-09-07T14:34:25.822Z,49.60
2022-09-07T14:36:47.710Z,49.40
2022-09-07T14:39:05.220Z,49.00
2022-09-07T14:41:10.005Z,48.90
2022-09-07T14:43:30.541Z,48.20
2022-09-07T14:45:33.411Z,48.90
2022-09-07T14:47:35.310Z,49.10
2022-09-07T14:49:37.146Z,49.50
2022-09-07T14:51:43.166Z,49.30
2022-09-07T14:53:51.595Z,49.10
2022-09-07T14:56:00.776Z,49.00
2022-09-07T14:58:14.634Z,49.00
2022-09-07T15:00:32.014Z,49.00
2022-09-07T15:02:35.400Z,49.40
2022-09-07T15:04:37.191Z,49.20
2022-09-07T15:09:04.318Z,48.90
2022-09-07T15:11:33.562Z,49.20
2022-09-07T15:13:36.418Z,49.30
2022-09-07T15:15:41.096Z,49.00
2022-09-07T15:17:43.270Z,48.80
2022-09-07T15:19:45.433Z,48.90
2022-09-07T15:21:47.409Z,48.90
2022-09-07T15:23:50.299Z,48.70
2022-09-07T15:25:53.766Z,48.40
2022-09-07T15:27:55.832Z,48.70
2022-09-07T15:29:57.480Z,48.50
2022-09-07T15:32:03.766Z,48.60
2022-09-07T15:34:13.032Z,48.70
2022-09-07T15:36:15.854Z,48.80
2022-09-07T15:41:20.819Z,48.70
2022-09-07T15:43:21.407Z,48.70
2022-09-07T15:45:24.788Z,48.50
2022-09-07T15:49:51.383Z,48.90
2022-09-07T15:52:08.418Z,49.00
2022-09-07T15:54:14.253Z,49.10
2022-09-07T15:56:17.260Z,49.20
2022-09-07T15:58:21.515Z,49.20
2022-09-07T16:00:23.170Z,49.10
2022-09-07T16:04:46.759Z,48.60
2022-09-07T16:06:48.579Z,48.60
2022-09-07T16:08:51.596Z,48.70
2022-09-07T16:10:54.240Z,48.30
2022-09-07T16:13:01.132Z,48.30
2022-09-07T16:15:05.163Z,48.40
2022-09-07T16:19:28.451Z,47.90
2022-09-07T16:21:30.133Z,47.90
2022-09-07T16:23:31.781Z,48.00
2022-09-07T16:25:34.347Z,47.60
2022-09-07T16:27:41.403Z,47.70
2022-09-07T16:29:43.416Z,47.60
2022-09-07T16:34:06.767Z,48.10
2022-09-07T16:36:13.172Z,48.00
2022-09-07T16:40:41.510Z,47.90
2022-09-07T16:42:43.211Z,47.90
2022-09-07T16:44:45.269Z,48.10
2022-09-07T16:46:47.015Z,48.30
2022-09-07T16:48:49.890Z,48.30
2022-09-07T16:50:56.594Z,48.30
2022-09-07T16:53:02.151Z,48.50
2022-09-07T16:55:04.436Z,48.50
2022-09-07T16:57:06.119Z,48.40
2022-09-07T16:59:09.578Z,48.40
2022-09-07T17:01:13.172Z,48.60
2022-09-07T17:03:14.813Z,48.80
2022-09-07T17:05:16.458Z,48.70
2022-09-07T17:07:18.088Z,48.80
2022-09-07T17:09:20.536Z,48.70
2022-09-07T17:11:23.965Z,48.80
2022-09-07T17:13:25.639Z,49.00
2022-09-07T17:15:27.352Z,49.00
2022-09-07T17:17:28.991Z,49.20
2022-09-07T17:19:30.869Z,49.30
2022-09-07T17:21:33.652Z,49.40
2022-09-07T17:23:44.114Z,49.80
2022-09-07T17:25:49.584Z,50.00
2022-09-07T17:27:51.165Z,50.10
2022-09-07T17:29:53.789Z,50.30
2022-09-07T17:34:19.571Z,50.50
2022-09-07T17:36:22.118Z,50.60
2022-09-07T17:40:45.387Z,50.50
2022-09-07T17:45:08.808Z,51.40
2022-09-07T17:47:10.428Z,51.00
2022-09-07T17:49:13.937Z,51.10
2022-09-07T17:51:16.499Z,51.30
2022-09-07T17:53:18.126Z,51.50
2022-09-07T17:55:19.761Z,51.40
2022-09-07T17:57:22.395Z,51.70
2022-09-07T18:01:45.719Z,51.70
2022-09-07T18:03:47.540Z,51.80
2022-09-07T18:05:52.807Z,51.80
2022-09-07T18:07:54.672Z,51.90
2022-09-07T18:09:56.360Z,51.90
2022-09-07T18:11:57.991Z,52.10
2022-09-07T18:13:59.906Z,52.00
2022-09-07T18:16:01.656Z,52.10
2022-09-07T18:18:03.310Z,52.10
2022-09-07T18:20:05.086Z,52.30
2022-09-07T18:22:08.494Z,52.40
2022-09-07T18:24:16.752Z,52.30
2022-09-07T18:26:18.474Z,52.50
2022-09-07T18:30:42.708Z,52.70
2022-09-07T18:32:45.186Z,52.80
2022-09-07T18:34:50.367Z,52.90
2022-09-07T18:36:52.490Z,52.80
2022-09-07T18:38:54.360Z,53.10
2022-09-07T18:41:05.170Z,53.00
2022-09-07T18:43:06.864Z,53.00
2022-09-07T18:47:31.439Z,53.20
2022-09-07T18:49:33.225Z,53.20
2022-09-07T18:52:51.771Z,53.30
2022-09-07T18:53:56.993Z,53.40
2022-09-07T18:56:05.453Z,53.30
2022-09-07T18:58:07.166Z,53.40
2022-09-07T19:00:10.001Z,53.90
2022-09-07T19:02:11.999Z,54.10
2022-09-07T19:04:13.927Z,54.10
2022-09-07T19:06:15.848Z,54.00
2022-09-07T19:08:17.598Z,54.50
2022-09-07T19:10:19.358Z,54.40
2022-09-07T19:12:21.093Z,54.50
2022-09-07T19:14:23.119Z,54.30
2022-09-07T19:16:27.949Z,54.30
2022-09-07T19:18:29.650Z,54.90
2022-09-07T19:20:32.691Z,54.90
2022-09-07T19:22:34.401Z,54.80
2022-09-07T19:24:37.585Z,55.10
2022-09-07T19:26:40.551Z,55.10
2022-09-07T19:28:42.315Z,55.20
2022-09-07T19:30:44.094Z,55.40
2022-09-07T19:32:45.809Z,55.30
2022-09-07T19:34:49.068Z,55.60
2022-09-07T19:36:50.778Z,55.70
2022-09-07T19:38:52.507Z,55.40
2022-09-07T19:40:55.173Z,55.50
2022-09-07T19:42:57.086Z,55.50
2022-09-07T19:44:59.466Z,55.20
2022-09-07T19:47:01.257Z,55.60
2022-09-07T19:49:03.074Z,55.50
2022-09-07T19:51:06.568Z,55.20
2022-09-07T19:53:08.304Z,54.90
2022-09-07T19:55:10.058Z,55.30
2022-09-07T19:57:11.702Z,55.40
2022-09-07T19:59:13.961Z,55.10
2022-09-07T20:01:17.487Z,55.00
2022-09-07T20:03:21.846Z,55.10
2022-09-07T20:05:23.926Z,55.30
2022-09-07T20:07:25.637Z,55.60
2022-09-07T20:09:27.506Z,55.70
2022-09-07T20:11:29.341Z,55.60
2022-09-07T20:13:31.551Z,55.50
2022-09-07T20:15:33.234Z,55.70
2022-09-07T20:17:35.635Z,55.40
2022-09-07T20:19:37.763Z,55.90
2022-09-07T20:21:39.425Z,55.80
2022-09-07T20:23:42.245Z,55.80
2022-09-07T20:25:43.903Z,55.70
2022-09-07T20:27:45.625Z,56.00
2022-09-07T20:29:47.316Z,55.80
2022-09-07T20:31:49.128Z,55.70
2022-09-07T20:33:51.749Z,56.30
2022-09-07T20:35:53.422Z,56.10
2022-09-07T20:37:55.120Z,56.40
2022-09-07T20:39:56.886Z,56.40
2022-09-07T20:41:58.570Z,56.20
2022-09-07T20:44:01.205Z,56.10
2022-09-07T20:46:02.862Z,56.40
2022-09-07T20:48:04.541Z,56.60
2022-09-07T20:50:06.367Z,56.70
2022-09-07T20:52:08.007Z,56.80
2022-09-07T20:54:10.106Z,56.50
2022-09-07T20:56:15.545Z,56.70
2022-09-07T20:58:17.712Z,57.00
2022-09-07T21:00:19.510Z,57.20
2022-09-07T21:02:21.262Z,57.10
2022-09-07T21:04:26.223Z,57.40
2022-09-07T21:06:28.433Z,57.50
2022-09-07T21:08:30.671Z,57.40
2022-09-07T21:10:32.293Z,57.10
2022-09-07T21:12:34.091Z,57.30
2022-09-07T21:14:35.760Z,57.40
2022-09-07T21:16:37.512Z,57.60
2022-09-07T21:18:39.846Z,57.20
2022-09-07T21:20:49.621Z,57.10
2022-09-07T21:22:59.638Z,57.50
2022-09-07T21:25:02.150Z,57.90
2022-09-07T21:27:03.819Z,58.00
2022-09-07T21:29:05.435Z,57.90
2022-09-07T21:31:07.966Z,57.70
2022-09-07T21:33:09.847Z,57.90
2022-09-07T21:35:11.488Z,57.60
2022-09-07T21:37:13.176Z,58.00
2022-09-07T21:39:15.213Z,58.20
2022-09-07T21:41:17.737Z,58.90
2022-09-07T21:43:19.356Z,58.30
2022-09-07T21:45:20.935Z,58.40
2022-09-07T21:47:22.625Z,58.00
2022-09-07T21:49:24.326Z,57.90
2022-09-07T21:51:26.670Z,58.20
2022-09-07T21:53:28.476Z,58.30
2022-09-07T21:55:30.169Z,58.60
2022-09-07T21:57:31.772Z,58.30
2022-09-07T21:59:34.165Z,58.50
2022-09-07T22:01:35.854Z,58.40
2022-09-07T22:03:37.747Z,58.30
2022-09-07T22:05:39.476Z,58.00
2022-09-07T22:07:41.660Z,58.30
2022-09-07T22:09:43.742Z,58.30
2022-09-07T22:11:46.254Z,58.70
2022-09-07T22:13:48.003Z,58.50
2022-09-07T22:15:49.665Z,58.60
2022-09-07T22:17:53.072Z,58.30
2022-09-07T22:19:54.697Z,58.50
2022-09-07T22:21:56.326Z,58.40
2022-09-07T22:23:59.357Z,58.40
2022-09-07T22:26:00.973Z,58.30
2022-09-07T22:28:02.721Z,58.70
2022-09-07T22:30:04.894Z,58.30
2022-09-07T22:32:06.526Z,58.30
2022-09-07T22:34:09.126Z,58.50
2022-09-07T22:36:12.520Z,58.70
2022-09-07T22:38:14.192Z,58.70
2022-09-07T22:40:16.125Z,58.70
2022-09-07T22:42:17.880Z,58.40
2022-09-07T22:44:19.592Z,58.40
2022-09-07T22:46:22.642Z,58.50
2022-09-07T22:48:24.317Z,58.70
2022-09-07T22:50:26.112Z,58.60
2022-09-07T22:52:27.732Z,58.60
2022-09-07T22:54:29.387Z,58.40
2022-09-07T22:56:32.291Z,58.30
2022-09-07T22:58:34.330Z,58.50
2022-09-07T23:00:36.348Z,58.70
2022-09-07T23:02:37.955Z,58.60
2022-09-07T23:04:39.719Z,58.60
2022-09-07T23:06:42.338Z,58.70
2022-09-07T23:08:43.941Z,58.60
2022-09-07T23:10:47.393Z,58.30
2022-09-07T23:12:49.021Z,58.00
2022-09-07T23:14:50.671Z,58.20
2022-09-07T23:16:52.342Z,58.10
2022-09-07T23:18:55.011Z,58.20
2022-09-07T23:21:00.685Z,58.20
2022-09-07T23:23:02.659Z,58.20
2022-09-07T23:25:04.565Z,58.60
2022-09-07T23:27:06.671Z,58.70
2022-09-07T23:29:10.733Z,58.80
2022-09-07T23:31:12.450Z,58.90
2022-09-07T23:33:14.341Z,59.20
2022-09-07T23:35:16.832Z,59.00
2022-09-07T23:37:18.836Z,59.50
2022-09-07T23:39:20.508Z,59.30
2022-09-07T23:41:22.520Z,59.60
2022-09-07T23:43:24.850Z,59.80
2022-09-07T23:45:26.716Z,59.90
2022-09-07T23:47:28.443Z,59.60
2022-09-07T23:49:30.209Z,59.50
2022-09-07T23:51:31.986Z,59.40
2022-09-07T23:53:33.740Z,59.60
2022-09-07T23:55:35.556Z,59.40
2022-09-07T23:57:37.864Z,59.80
2022-09-07T23:59:39.506Z,59.40
